sensor_id;sensor_type;location;lat;lon;timestamp;pressure;altitude;pressure_sealevel;temperature;humidity
84760;BME280;74983;51.084;11.086;2024-01-30T00:02:23;101377.00;;;-0.60;95.24
84760;BME280;74983;51.084;11.086;2024-01-30T00:04:48;101377.03;;;-0.66;95.08
84760;BME280;74983;51.084;11.086;2024-01-30T00:07:14;101366.81;;;-0.76;94.97
84760;BME280;74983;51.084;11.086;2024-01-30T00:09:39;101364.28;;;-0.81;96.12
84760;BME280;74983;51.084;11.086;2024-01-30T00:12:05;101373.66;;;-0.74;94.42
84760;BME280;74983;51.084;11.086;2024-01-30T00:14:31;101374.47;;;-0.67;94.88
84760;BME280;74983;51.084;11.086;2024-01-30T00:16:56;101365.97;;;-0.72;95.97
84760;BME280;74983;51.084;11.086;2024-01-30T00:19:21;101371.09;;;-0.72;95.15
84760;BME280;74983;51.084;11.086;2024-01-30T00:21:47;101371.97;;;-0.81;95.02
84760;BME280;74983;51.084;11.086;2024-01-30T00:24:12;101373.69;;;-0.84;94.63
84760;BME280;74983;51.084;11.086;2024-01-30T00:26:37;101374.53;;;-0.88;94.13
84760;BME280;74983;51.084;11.086;2024-01-30T00:29:03;101373.69;;;-0.89;94.06
84760;BME280;74983;51.084;11.086;2024-01-30T00:31:28;101372.00;;;-0.91;94.70
84760;BME280;74983;51.084;11.086;2024-01-30T00:33:54;101368.59;;;-0.87;94.64
84760;BME280;74983;51.084;11.086;2024-01-30T00:36:19;101366.03;;;-0.87;94.77
84760;BME280;74983;51.084;11.086;2024-01-30T00:38:45;101361.75;;;-0.88;94.44
84760;BME280;74983;51.084;11.086;2024-01-30T00:41:10;101356.63;;;-0.85;95.36
84760;BME280;74983;51.084;11.086;2024-01-30T00:43:36;101354.94;;;-0.80;94.85
84760;BME280;74983;51.084;11.086;2024-01-30T00:46:01;101355.78;;;-0.89;94.40
84760;BME280;74983;51.084;11.086;2024-01-30T00:48:26;101351.53;;;-0.88;94.09
84760;BME280;74983;51.084;11.086;2024-01-30T00:50:52;101356.59;;;-0.76;94.70
84760;BME280;74983;51.084;11.086;2024-01-30T00:53:17;101354.94;;;-0.86;93.64
84760;BME280;74983;51.084;11.086;2024-01-30T00:55:43;101353.22;;;-0.89;94.82
84760;BME280;74983;51.084;11.086;2024-01-30T00:58:08;101351.53;;;-0.87;93.62
84760;BME280;74983;51.084;11.086;2024-01-30T01:00:34;101354.94;;;-0.86;94.55
84760;BME280;74983;51.084;11.086;2024-01-30T01:02:59;101351.53;;;-0.91;94.27
84760;BME280;74983;51.084;11.086;2024-01-30T01:05:25;101349.81;;;-0.88;94.59
84760;BME280;74983;51.084;11.086;2024-01-30T01:07:50;101349.78;;;-0.82;95.36
84760;BME280;74983;51.084;11.086;2024-01-30T01:10:19;101346.41;;;-0.84;95.29
84760;BME280;74983;51.084;11.086;2024-01-30T01:12:45;101350.66;;;-0.81;94.57
84760;BME280;74983;51.084;11.086;2024-01-30T01:15:10;101348.06;;;-0.71;95.53
84760;BME280;74983;51.084;11.086;2024-01-30T01:17:36;101346.34;;;-0.63;94.10
84760;BME280;74983;51.084;11.086;2024-01-30T01:20:03;101344.59;;;-0.62;94.18
84760;BME280;74983;51.084;11.086;2024-01-30T01:22:29;101345.50;;;-0.69;94.55
84760;BME280;74983;51.084;11.086;2024-01-30T01:24:54;101350.66;;;-0.75;93.55
84760;BME280;74983;51.084;11.086;2024-01-30T01:27:19;101353.16;;;-0.71;93.95
84760;BME280;74983;51.084;11.086;2024-01-30T01:29:44;101342.09;;;-0.73;94.57
84760;BME280;74983;51.084;11.086;2024-01-30T01:32:10;101347.22;;;-0.74;94.94
84760;BME280;74983;51.084;11.086;2024-01-30T01:34:35;101342.13;;;-0.77;93.84
84760;BME280;74983;51.084;11.086;2024-01-30T01:37:01;101342.13;;;-0.79;94.67
84760;BME280;74983;51.084;11.086;2024-01-30T01:39:26;101352.38;;;-0.79;94.09
84760;BME280;74983;51.084;11.086;2024-01-30T01:41:51;101347.25;;;-0.77;94.74
84760;BME280;74983;51.084;11.086;2024-01-30T01:44:18;101353.19;;;-0.78;94.52
84760;BME280;74983;51.084;11.086;2024-01-30T01:46:43;101340.41;;;-0.81;95.36
84760;BME280;74983;51.084;11.086;2024-01-30T01:49:09;101343.00;;;-0.83;93.57
84760;BME280;74983;51.084;11.086;2024-01-30T01:51:36;101331.91;;;-0.85;94.60
84760;BME280;74983;51.084;11.086;2024-01-30T01:54:03;101343.88;;;-0.93;93.90
84760;BME280;74983;51.084;11.086;2024-01-30T01:56:29;101341.28;;;-0.85;94.91
84760;BME280;74983;51.084;11.086;2024-01-30T01:58:58;101339.56;;;-0.82;94.87
84760;BME280;74983;51.084;11.086;2024-01-30T02:01:25;101338.75;;;-0.88;94.06
84760;BME280;74983;51.084;11.086;2024-01-30T02:03:51;101328.53;;;-0.93;94.86
84760;BME280;74983;51.084;11.086;2024-01-30T02:06:16;101327.66;;;-0.83;94.40
84760;BME280;74983;51.084;11.086;2024-01-30T02:08:42;101332.78;;;-0.84;95.09
84760;BME280;74983;51.084;11.086;2024-01-30T02:11:08;101331.06;;;-0.82;94.74
84760;BME280;74983;51.084;11.086;2024-01-30T02:13:35;101326.78;;;-0.83;94.56
84760;BME280;74983;51.084;11.086;2024-01-30T02:16:00;101328.50;;;-0.79;94.17
84760;BME280;74983;51.084;11.086;2024-01-30T02:18:26;101327.63;;;-0.80;94.43
84760;BME280;74983;51.084;11.086;2024-01-30T02:20:53;101323.38;;;-0.79;94.14
84760;BME280;74983;51.084;11.086;2024-01-30T02:23:20;101327.63;;;-0.81;94.58
84760;BME280;74983;51.084;11.086;2024-01-30T02:25:45;101323.41;;;-0.82;94.25
84760;BME280;74983;51.084;11.086;2024-01-30T02:28:14;101322.56;;;-0.90;94.79
84760;BME280;74983;51.084;11.086;2024-01-30T02:30:39;101321.69;;;-0.85;94.18
84760;BME280;74983;51.084;11.086;2024-01-30T02:33:05;101320.84;;;-0.90;95.19
84760;BME280;74983;51.084;11.086;2024-01-30T02:35:31;101310.63;;;-0.90;94.33
84760;BME280;74983;51.084;11.086;2024-01-30T02:37:56;101311.50;;;-0.91;94.18
84760;BME280;74983;51.084;11.086;2024-01-30T02:40:21;101305.50;;;-0.85;95.10
84760;BME280;74983;51.084;11.086;2024-01-30T02:42:46;101314.00;;;-0.79;95.23
84760;BME280;74983;51.084;11.086;2024-01-30T02:45:12;101305.47;;;-0.79;94.41
84760;BME280;74983;51.084;11.086;2024-01-30T02:47:38;101304.59;;;-0.78;94.58
84760;BME280;74983;51.084;11.086;2024-01-30T02:50:04;101299.50;;;-0.75;95.04
84760;BME280;74983;51.084;11.086;2024-01-30T02:52:29;101308.03;;;-0.78;95.17
84760;BME280;74983;51.084;11.086;2024-01-30T02:54:54;101307.22;;;-0.87;95.55
84760;BME280;74983;51.084;11.086;2024-01-30T02:57:19;101300.41;;;-0.97;95.60
84760;BME280;74983;51.084;11.086;2024-01-30T02:59:45;101304.69;;;-1.02;94.30
84760;BME280;74983;51.084;11.086;2024-01-30T03:02:10;101304.69;;;-0.96;95.26
84760;BME280;74983;51.084;11.086;2024-01-30T03:04:36;101300.44;;;-0.99;94.64
84760;BME280;74983;51.084;11.086;2024-01-30T03:07:01;101300.44;;;-0.99;95.57
84760;BME280;74983;51.084;11.086;2024-01-30T03:09:26;101298.75;;;-1.04;93.88
84760;BME280;74983;51.084;11.086;2024-01-30T03:11:51;101296.22;;;-1.07;95.18
84760;BME280;74983;51.084;11.086;2024-01-30T03:14:17;101291.94;;;-1.04;94.48
84760;BME280;74983;51.084;11.086;2024-01-30T03:16:42;101295.34;;;-1.08;95.79
84760;BME280;74983;51.084;11.086;2024-01-30T03:19:07;101284.28;;;-1.04;95.40
84760;BME280;74983;51.084;11.086;2024-01-30T03:21:34;101288.59;;;-1.20;94.52
84760;BME280;74983;51.084;11.086;2024-01-30T03:23:59;101280.06;;;-1.22;94.59
84760;BME280;74983;51.084;11.086;2024-01-30T03:26:24;101280.06;;;-1.14;94.48
84760;BME280;74983;51.084;11.086;2024-01-30T03:28:50;101284.28;;;-1.13;96.57
84760;BME280;74983;51.084;11.086;2024-01-30T03:31:15;101276.66;;;-1.19;95.72
84760;BME280;74983;51.084;11.086;2024-01-30T03:33:41;101275.78;;;-1.17;95.55
84760;BME280;74983;51.084;11.086;2024-01-30T03:36:06;101279.16;;;-1.02;95.15
84760;BME280;74983;51.084;11.086;2024-01-30T03:38:31;101279.16;;;-0.99;96.55
84760;BME280;74983;51.084;11.086;2024-01-30T03:41:00;101277.47;;;-1.03;96.12
84760;BME280;74983;51.084;11.086;2024-01-30T03:43:26;101277.47;;;-1.06;96.13
84760;BME280;74983;51.084;11.086;2024-01-30T03:45:51;101280.03;;;-1.09;96.00
84760;BME280;74983;51.084;11.086;2024-01-30T03:48:17;101280.03;;;-1.11;96.01
84760;BME280;74983;51.084;11.086;2024-01-30T03:50:42;101278.38;;;-1.21;94.73
84760;BME280;74983;51.084;11.086;2024-01-30T03:53:08;101270.72;;;-1.23;94.75
84760;BME280;74983;51.084;11.086;2024-01-30T03:55:33;101267.28;;;-1.22;95.51
84760;BME280;74983;51.084;11.086;2024-01-30T03:57:58;101265.63;;;-1.26;95.77
84760;BME280;74983;51.084;11.086;2024-01-30T04:00:23;101267.31;;;-1.25;95.54
84760;BME280;74983;51.084;11.086;2024-01-30T04:02:49;101269.03;;;-1.28;95.42
84760;BME280;74983;51.084;11.086;2024-01-30T04:05:16;101267.34;;;-1.35;96.04
84760;BME280;74983;51.084;11.086;2024-01-30T04:07:41;101266.47;;;-1.30;95.33
84760;BME280;74983;51.084;11.086;2024-01-30T04:10:07;101277.53;;;-1.32;95.90
84760;BME280;74983;51.084;11.086;2024-01-30T04:12:32;101277.56;;;-1.41;94.94
84760;BME280;74983;51.084;11.086;2024-01-30T04:14:57;101290.34;;;-1.40;95.28
84760;BME280;74983;51.084;11.086;2024-01-30T04:17:23;101285.22;;;-1.38;94.94
84760;BME280;74983;51.084;11.086;2024-01-30T04:19:48;101283.50;;;-1.33;94.94
84760;BME280;74983;51.084;11.086;2024-01-30T04:22:13;101280.94;;;-1.21;95.05
84760;BME280;74983;51.084;11.086;2024-01-30T04:24:38;101286.00;;;-1.15;94.76
84760;BME280;74983;51.084;11.086;2024-01-30T04:27:04;101287.75;;;-1.32;94.02
84760;BME280;74983;51.084;11.086;2024-01-30T04:29:29;101284.38;;;-1.42;95.36
84760;BME280;74983;51.084;11.086;2024-01-30T04:31:54;101296.31;;;-1.36;94.45
84760;BME280;74983;51.084;11.086;2024-01-30T04:34:19;101291.19;;;-1.41;94.92
84760;BME280;74983;51.084;11.086;2024-01-30T04:36:45;101283.53;;;-1.44;96.30
84760;BME280;74983;51.084;11.086;2024-01-30T04:39:11;101283.53;;;-1.36;95.73
84760;BME280;74983;51.084;11.086;2024-01-30T04:41:36;101281.78;;;-1.34;95.80
84760;BME280;74983;51.084;11.086;2024-01-30T04:44:01;101280.13;;;-1.44;94.70
84760;BME280;74983;51.084;11.086;2024-01-30T04:46:27;101276.72;;;-1.40;95.31
84760;BME280;74983;51.084;11.086;2024-01-30T04:48:52;101272.44;;;-1.34;94.85
84760;BME280;74983;51.084;11.086;2024-01-30T04:51:17;101279.25;;;-1.39;95.50
84760;BME280;74983;51.084;11.086;2024-01-30T04:53:42;101284.34;;;-1.34;95.37
84760;BME280;74983;51.084;11.086;2024-01-30T04:56:08;101284.34;;;-1.36;96.22
84760;BME280;74983;51.084;11.086;2024-01-30T04:58:33;101285.22;;;-1.41;95.62
84760;BME280;74983;51.084;11.086;2024-01-30T05:00:58;101280.97;;;-1.50;94.73
84760;BME280;74983;51.084;11.086;2024-01-30T05:03:24;101277.59;;;-1.56;95.07
84760;BME280;74983;51.084;11.086;2024-01-30T05:05:49;101275.03;;;-1.65;95.88
84760;BME280;74983;51.084;11.086;2024-01-30T05:08:14;101274.22;;;-1.70;95.34
84760;BME280;74983;51.084;11.086;2024-01-30T05:10:40;101272.50;;;-1.76;95.38
84760;BME280;74983;51.084;11.086;2024-01-30T05:13:05;101274.22;;;-1.66;95.55
84760;BME280;74983;51.084;11.086;2024-01-30T05:15:30;101274.22;;;-1.64;96.16
84760;BME280;74983;51.084;11.086;2024-01-30T05:17:56;101275.88;;;-1.60;95.73
84760;BME280;74983;51.084;11.086;2024-01-30T05:20:21;101287.81;;;-1.64;95.87
84760;BME280;74983;51.084;11.086;2024-01-30T05:22:46;101277.59;;;-1.58;96.39
84760;BME280;74983;51.084;11.086;2024-01-30T05:25:14;101274.19;;;-1.61;96.08
84760;BME280;74983;51.084;11.086;2024-01-30T05:27:39;101277.63;;;-1.68;95.16
84760;BME280;74983;51.084;11.086;2024-01-30T05:30:08;101290.38;;;-1.70;95.36
84760;BME280;74983;51.084;11.086;2024-01-30T05:32:34;101285.28;;;-1.67;95.54
84760;BME280;74983;51.084;11.086;2024-01-30T05:34:59;101280.16;;;-1.61;94.66
84760;BME280;74983;51.084;11.086;2024-01-30T05:37:24;101287.84;;;-1.71;94.33
84760;BME280;74983;51.084;11.086;2024-01-30T05:39:49;101289.53;;;-1.79;95.75
84760;BME280;74983;51.084;11.086;2024-01-30T05:42:15;101281.03;;;-1.83;95.25
84760;BME280;74983;51.084;11.086;2024-01-30T05:44:42;101280.16;;;-1.76;95.53
84760;BME280;74983;51.084;11.086;2024-01-30T05:47:07;101281.88;;;-1.70;95.26
84760;BME280;74983;51.084;11.086;2024-01-30T05:49:32;101290.38;;;-1.71;94.87
84760;BME280;74983;51.084;11.086;2024-01-30T05:51:57;101288.69;;;-1.80;95.82
84760;BME280;74983;51.084;11.086;2024-01-30T05:54:23;101283.59;;;-1.69;95.01
84760;BME280;74983;51.084;11.086;2024-01-30T05:56:48;101284.44;;;-1.76;95.63
84760;BME280;74983;51.084;11.086;2024-01-30T05:59:13;101289.53;;;-1.76;95.23
84760;BME280;74983;51.084;11.086;2024-01-30T06:01:45;101283.56;;;-1.83;95.09
84760;BME280;74983;51.084;11.086;2024-01-30T06:04:10;101279.31;;;-1.78;95.98
84760;BME280;74983;51.084;11.086;2024-01-30T06:06:36;101281.88;;;-1.76;94.90
84760;BME280;74983;51.084;11.086;2024-01-30T06:09:01;101287.84;;;-1.79;96.08
84760;BME280;74983;51.084;11.086;2024-01-30T06:11:26;101281.03;;;-1.77;96.05
84760;BME280;74983;51.084;11.086;2024-01-30T06:13:52;101279.31;;;-1.73;95.15
84760;BME280;74983;51.084;11.086;2024-01-30T06:16:17;101279.31;;;-1.72;96.03
84760;BME280;74983;51.084;11.086;2024-01-30T06:18:42;101282.72;;;-1.74;95.44
84760;BME280;74983;51.084;11.086;2024-01-30T06:21:07;101284.41;;;-1.79;96.37
84760;BME280;74983;51.084;11.086;2024-01-30T06:23:33;101282.72;;;-1.80;95.35
84760;BME280;74983;51.084;11.086;2024-01-30T06:25:58;101275.06;;;-1.80;94.96
84760;BME280;74983;51.084;11.086;2024-01-30T06:28:24;101276.78;;;-1.85;96.23
84760;BME280;74983;51.084;11.086;2024-01-30T06:30:49;101275.06;;;-1.73;96.08
84760;BME280;74983;51.084;11.086;2024-01-30T06:33:14;101270.78;;;-1.60;95.31
84760;BME280;74983;51.084;11.086;2024-01-30T06:35:40;101267.41;;;-1.67;94.84
84760;BME280;74983;51.084;11.086;2024-01-30T06:38:06;101272.50;;;-1.70;95.02
84760;BME280;74983;51.084;11.086;2024-01-30T06:40:31;101268.25;;;-1.72;95.63
84760;BME280;74983;51.084;11.086;2024-01-30T06:42:57;101262.28;;;-1.76;95.32
84760;BME280;74983;51.084;11.086;2024-01-30T06:45:22;101264.03;;;-1.87;95.26
84760;BME280;74983;51.084;11.086;2024-01-30T06:47:47;101267.44;;;-1.85;94.91
84760;BME280;74983;51.084;11.086;2024-01-30T06:50:12;101265.72;;;-1.78;95.79
84760;BME280;74983;51.084;11.086;2024-01-30T06:52:38;101273.38;;;-1.78;96.72
84760;BME280;74983;51.084;11.086;2024-01-30T06:55:03;101275.03;;;-1.65;96.81
84760;BME280;74983;51.084;11.086;2024-01-30T06:57:28;101281.03;;;-1.75;96.38
84760;BME280;74983;51.084;11.086;2024-01-30T06:59:55;101286.97;;;-1.78;96.10
84760;BME280;74983;51.084;11.086;2024-01-30T07:02:20;101281.88;;;-1.82;95.51
84760;BME280;74983;51.084;11.086;2024-01-30T07:04:46;101281.03;;;-1.83;94.97
84760;BME280;74983;51.084;11.086;2024-01-30T07:07:11;101280.16;;;-1.88;94.85
84760;BME280;74983;51.084;11.086;2024-01-30T07:09:38;101285.28;;;-1.91;95.89
84760;BME280;74983;51.084;11.086;2024-01-30T07:12:04;101287.00;;;-1.88;94.90
84760;BME280;74983;51.084;11.086;2024-01-30T07:14:29;101287.81;;;-1.88;94.89
84760;BME280;74983;51.084;11.086;2024-01-30T07:16:54;101281.03;;;-1.87;96.36
84760;BME280;74983;51.084;11.086;2024-01-30T07:19:20;101282.72;;;-1.88;95.37
84760;BME280;74983;51.084;11.086;2024-01-30T07:21:45;101289.53;;;-1.85;95.69
84760;BME280;74983;51.084;11.086;2024-01-30T07:24:11;101284.41;;;-1.78;94.55
84760;BME280;74983;51.084;11.086;2024-01-30T07:26:36;101287.00;;;-1.76;95.11
84760;BME280;74983;51.084;11.086;2024-01-30T07:29:01;101287.84;;;-1.73;95.90
84760;BME280;74983;51.084;11.086;2024-01-30T07:31:27;101281.00;;;-1.65;96.04
84760;BME280;74983;51.084;11.086;2024-01-30T07:33:52;101286.13;;;-1.65;95.79
84760;BME280;74983;51.084;11.086;2024-01-30T07:36:18;101284.41;;;-1.61;95.61
84760;BME280;74983;51.084;11.086;2024-01-30T07:38:43;101286.09;;;-1.47;95.00
84760;BME280;74983;51.084;11.086;2024-01-30T07:41:08;101289.47;;;-1.39;95.50
84760;BME280;74983;51.084;11.086;2024-01-30T07:43:34;101286.06;;;-1.32;94.85
84760;BME280;74983;51.084;11.086;2024-01-30T07:45:59;101279.22;;;-1.25;94.21
84760;BME280;74983;51.084;11.086;2024-01-30T07:48:26;101280.06;;;-1.22;95.06
84760;BME280;74983;51.084;11.086;2024-01-30T07:50:52;101285.16;;;-1.13;94.17
84760;BME280;74983;51.084;11.086;2024-01-30T07:53:18;101291.06;;;-1.04;94.01
84760;BME280;74983;51.084;11.086;2024-01-30T07:55:43;101282.56;;;-1.02;95.38
84760;BME280;74983;51.084;11.086;2024-01-30T07:58:11;101286.78;;;-0.92;94.95
84760;BME280;74983;51.084;11.086;2024-01-30T08:00:37;101285.94;;;-0.89;94.24
84760;BME280;74983;51.084;11.086;2024-01-30T08:03:02;101283.31;;;-0.82;94.08
84760;BME280;74983;51.084;11.086;2024-01-30T08:05:28;101285.00;;;-0.75;95.00
84760;BME280;74983;51.084;11.086;2024-01-30T08:07:53;101285.81;;;-0.65;94.49
84760;BME280;74983;51.084;11.086;2024-01-30T08:10:18;101283.19;;;-0.59;95.41
84760;BME280;74983;51.084;11.086;2024-01-30T08:12:44;101284.84;;;-0.46;95.00
84760;BME280;74983;51.084;11.086;2024-01-30T08:15:09;101286.50;;;-0.39;94.40
84760;BME280;74983;51.084;11.086;2024-01-30T08:17:35;101293.25;;;-0.29;94.59
84760;BME280;74983;51.084;11.086;2024-01-30T08:20:00;101284.72;;;-0.27;94.30
84760;BME280;74983;51.084;11.086;2024-01-30T08:22:25;101294.06;;;-0.23;95.12
84760;BME280;74983;51.084;11.086;2024-01-30T08:24:50;101282.94;;;-0.13;93.86
84760;BME280;74983;51.084;11.086;2024-01-30T08:27:16;101282.84;;;-0.02;94.88
84760;BME280;74983;51.084;11.086;2024-01-30T08:29:41;101284.50;;;0.03;94.34
84760;BME280;74983;51.084;11.086;2024-01-30T08:32:06;101271.59;;;0.14;93.25
84760;BME280;74983;51.084;11.086;2024-01-30T08:34:32;101270.66;;;0.26;94.21
84760;BME280;74983;51.084;11.086;2024-01-30T08:36:57;101265.44;;;0.33;93.54
84760;BME280;74983;51.084;11.086;2024-01-30T08:39:22;101272.31;;;0.31;92.58
84760;BME280;74983;51.084;11.086;2024-01-30T08:41:48;101262.91;;;0.35;93.55
84760;BME280;74983;51.084;11.086;2024-01-30T08:44:13;101261.13;;;0.41;92.98
84760;BME280;74983;51.084;11.086;2024-01-30T08:46:38;101262.78;;;0.47;93.62
84760;BME280;74983;51.084;11.086;2024-01-30T08:49:03;101267.75;;;0.60;93.51
84760;BME280;74983;51.084;11.086;2024-01-30T08:51:30;101264.28;;;0.66;92.77
84760;BME280;74983;51.084;11.086;2024-01-30T08:53:55;101262.50;;;0.72;92.28
84760;BME280;74983;51.084;11.086;2024-01-30T08:56:20;101262.38;;;0.83;92.96
84760;BME280;74983;51.084;11.086;2024-01-30T08:58:45;101262.31;;;0.87;92.67
84760;BME280;74983;51.084;11.086;2024-01-30T09:01:10;101264.78;;;0.96;92.35
84760;BME280;74983;51.084;11.086;2024-01-30T09:03:36;101266.28;;;1.14;91.01
84760;BME280;74983;51.084;11.086;2024-01-30T09:06:08;101264.44;;;1.22;90.67
84760;BME280;74983;51.084;11.086;2024-01-30T09:08:33;101259.25;;;1.28;90.92
84760;BME280;74983;51.084;11.086;2024-01-30T09:10:58;101251.47;;;1.36;90.62
84760;BME280;74983;51.084;11.086;2024-01-30T09:13:24;101260.91;;;1.34;90.39
84760;BME280;74983;51.084;11.086;2024-01-30T09:15:49;101253.16;;;1.37;91.21
84760;BME280;74983;51.084;11.086;2024-01-30T09:18:14;101256.34;;;1.52;90.18
84760;BME280;74983;51.084;11.086;2024-01-30T09:20:39;101251.00;;;1.66;90.26
84760;BME280;74983;51.084;11.086;2024-01-30T09:23:05;101261.88;;;1.84;89.93
84760;BME280;74983;51.084;11.086;2024-01-30T09:25:30;101258.59;;;1.73;88.76
84760;BME280;74983;51.084;11.086;2024-01-30T09:27:55;101258.25;;;1.96;88.81
84760;BME280;74983;51.084;11.086;2024-01-30T09:30:20;101257.13;;;2.12;89.15
84760;BME280;74983;51.084;11.086;2024-01-30T09:32:46;101256.53;;;2.45;87.39
84760;BME280;74983;51.084;11.086;2024-01-30T09:35:11;101257.00;;;3.09;84.85
84760;BME280;74983;51.084;11.086;2024-01-30T09:37:36;101249.22;;;3.52;83.26
84760;BME280;74983;51.084;11.086;2024-01-30T09:40:02;101248.47;;;3.84;82.06
84760;BME280;74983;51.084;11.086;2024-01-30T09:42:33;101252.56;;;4.26;80.35
84760;BME280;74983;51.084;11.086;2024-01-30T09:45:02;101251.16;;;4.48;79.57
84760;BME280;74983;51.084;11.086;2024-01-30T09:47:31;101249.06;;;4.60;78.56
84760;BME280;74983;51.084;11.086;2024-01-30T09:49:58;101250.53;;;4.71;78.20
84760;BME280;74983;51.084;11.086;2024-01-30T09:52:23;101259.41;;;4.91;78.90
84760;BME280;74983;51.084;11.086;2024-01-30T09:54:51;101246.63;;;4.87;78.92
84760;BME280;74983;51.084;11.086;2024-01-30T09:57:16;101247.22;;;4.96;79.67
84760;BME280;74983;51.084;11.086;2024-01-30T09:59:42;101247.25;;;4.64;80.87
84760;BME280;74983;51.084;11.086;2024-01-30T10:02:08;101244.63;;;4.67;81.74
84760;BME280;74983;51.084;11.086;2024-01-30T10:04:33;101243.41;;;4.48;81.75
84760;BME280;74983;51.084;11.086;2024-01-30T10:07:03;101241.94;;;4.38;82.26
84760;BME280;74983;51.084;11.086;2024-01-30T10:09:31;101237.16;;;4.24;82.67
84760;BME280;74983;51.084;11.086;2024-01-30T10:11:57;101238.09;;;4.22;82.65
84760;BME280;74983;51.084;11.086;2024-01-30T10:14:23;101248.56;;;4.14;83.44
84760;BME280;74983;51.084;11.086;2024-01-30T10:16:48;101240.47;;;3.94;83.51
84760;BME280;74983;51.084;11.086;2024-01-30T10:19:13;101237.13;;;3.92;83.91
84760;BME280;74983;51.084;11.086;2024-01-30T10:21:38;101232.69;;;3.97;82.89
84760;BME280;74983;51.084;11.086;2024-01-30T10:24:04;101246.34;;;4.01;82.86
84760;BME280;74983;51.084;11.086;2024-01-30T10:26:29;101244.19;;;4.18;82.64
84760;BME280;74983;51.084;11.086;2024-01-30T10:28:59;101238.88;;;4.24;82.62
84760;BME280;74983;51.084;11.086;2024-01-30T10:31:24;101233.75;;;4.22;82.21
84760;BME280;74983;51.084;11.086;2024-01-30T10:33:50;101237.09;;;4.26;82.00
84760;BME280;74983;51.084;11.086;2024-01-30T10:36:17;101241.03;;;4.40;82.77
84760;BME280;74983;51.084;11.086;2024-01-30T10:38:43;101245.78;;;4.55;82.70
84760;BME280;74983;51.084;11.086;2024-01-30T10:41:12;101240.66;;;4.54;83.09
84760;BME280;74983;51.084;11.086;2024-01-30T10:43:41;101239.81;;;4.53;84.08
84760;BME280;74983;51.084;11.086;2024-01-30T10:46:10;101243.56;;;4.42;83.74
84760;BME280;74983;51.084;11.086;2024-01-30T10:48:42;101239.09;;;4.48;83.63
84760;BME280;74983;51.084;11.086;2024-01-30T10:51:09;101249.56;;;4.42;85.08
84760;BME280;74983;51.084;11.086;2024-01-30T10:53:35;101246.81;;;4.48;85.31
84760;BME280;74983;51.084;11.086;2024-01-30T10:56:02;101247.63;;;4.50;84.62
84760;BME280;74983;51.084;11.086;2024-01-30T10:58:28;101250.16;;;4.52;84.16
84760;BME280;74983;51.084;11.086;2024-01-30T11:00:54;101244.13;;;4.53;85.62
84760;BME280;74983;51.084;11.086;2024-01-30T11:03:19;101240.59;;;4.55;85.63
84760;BME280;74983;51.084;11.086;2024-01-30T11:05:49;101248.78;;;4.71;85.21
84760;BME280;74983;51.084;11.086;2024-01-30T11:08:22;101239.47;;;4.67;86.16
84760;BME280;74983;51.084;11.086;2024-01-30T11:10:49;101235.13;;;4.68;85.69
84760;BME280;74983;51.084;11.086;2024-01-30T11:13:14;101236.03;;;4.67;86.24
84760;BME280;74983;51.084;11.086;2024-01-30T11:15:40;101232.38;;;4.74;86.01
84760;BME280;74983;51.084;11.086;2024-01-30T11:18:05;101233.19;;;4.76;85.88
84760;BME280;74983;51.084;11.086;2024-01-30T11:20:32;101225.94;;;4.88;85.38
84760;BME280;74983;51.084;11.086;2024-01-30T11:22:58;101224.31;;;4.86;85.35
84760;BME280;74983;51.084;11.086;2024-01-30T11:25:25;101218.28;;;4.85;85.25
84760;BME280;74983;51.084;11.086;2024-01-30T11:27:52;101217.78;;;5.03;83.61
84760;BME280;74983;51.084;11.086;2024-01-30T11:30:22;101218.06;;;4.93;85.00
84760;BME280;74983;51.084;11.086;2024-01-30T11:33:00;101224.63;;;5.04;85.42
84760;BME280;74983;51.084;11.086;2024-01-30T11:35:26;101215.72;;;5.14;84.49
84760;BME280;74983;51.084;11.086;2024-01-30T11:37:52;101215.13;;;5.05;84.98
84760;BME280;74983;51.084;11.086;2024-01-30T11:40:17;101209.88;;;5.08;84.07
84760;BME280;74983;51.084;11.086;2024-01-30T11:42:44;101217.38;;;5.17;83.22
84760;BME280;74983;51.084;11.086;2024-01-30T11:45:09;101194.72;;;5.25;82.76
84760;BME280;74983;51.084;11.086;2024-01-30T11:47:36;101197.28;;;5.26;83.48
84760;BME280;74983;51.084;11.086;2024-01-30T11:50:03;101194.19;;;5.43;82.87
84760;BME280;74983;51.084;11.086;2024-01-30T11:52:31;101186.66;;;5.35;82.75
84760;BME280;74983;51.084;11.086;2024-01-30T11:54:56;101184.66;;;5.45;83.26
84760;BME280;74983;51.084;11.086;2024-01-30T11:57:21;101185.13;;;5.57;82.43
84760;BME280;74983;51.084;11.086;2024-01-30T11:59:47;101177.75;;;5.71;80.94
84760;BME280;74983;51.084;11.086;2024-01-30T12:02:15;101175.38;;;5.92;80.60
84760;BME280;74983;51.084;11.086;2024-01-30T12:04:41;101178.53;;;6.01;79.30
84760;BME280;74983;51.084;11.086;2024-01-30T12:07:06;101167.16;;;6.05;78.25
84760;BME280;74983;51.084;11.086;2024-01-30T12:09:32;101167.16;;;6.05;78.48
84760;BME280;74983;51.084;11.086;2024-01-30T12:11:57;101161.84;;;6.10;77.79
84760;BME280;74983;51.084;11.086;2024-01-30T12:14:23;101163.28;;;6.18;77.24
84760;BME280;74983;51.084;11.086;2024-01-30T12:16:50;101163.47;;;6.12;77.62
84760;BME280;74983;51.084;11.086;2024-01-30T12:19:25;101158.25;;;6.14;76.65
84760;BME280;74983;51.084;11.086;2024-01-30T12:21:57;101157.31;;;6.16;76.46
84760;BME280;74983;51.084;11.086;2024-01-30T12:24:27;101151.66;;;6.30;75.45
84760;BME280;74983;51.084;11.086;2024-01-30T12:26:56;101144.63;;;6.33;76.33
84760;BME280;74983;51.084;11.086;2024-01-30T12:29:22;101143.00;;;6.31;73.99
84760;BME280;74983;51.084;11.086;2024-01-30T12:31:47;101135.06;;;6.35;75.04
84760;BME280;74983;51.084;11.086;2024-01-30T12:34:15;101133.09;;;6.42;75.87
84760;BME280;74983;51.084;11.086;2024-01-30T12:36:47;101137.81;;;6.55;76.68